Time;durP1;ratioP1;P1;durP2;ratioP2;P2;SDS_P1;SDS_P2;PMS_P1;PMS_P2;Temp;Humidity;BMP_temperature;BMP_pressure;BME280_temperature;BME280_humidity;BME280_pressure;Samples;Min_cycle;Max_cycle;Signal;HPM_P1;HPM_P2
2022/01/23 00:00:18;;;;;;;2.23;2.03;;;5.50;98.20;;;;;;4967368;28;20462;-70
2022/01/23 00:02:46;;;;;;;1.60;1.27;;;5.50;98.20;;;;;;4961418;28;20544;-71
2022/01/23 00:05:14;;;;;;;1.70;1.60;;;5.50;98.20;;;;;;4966512;28;20564;-71
2022/01/23 00:07:43;;;;;;;1.70;1.30;;;5.50;98.20;;;;;;4967696;28;20533;-71
2022/01/23 00:10:11;;;;;;;1.67;1.40;;;5.50;98.20;;;;;;4971892;28;20524;-71
2022/01/23 00:12:44;;;;;;;1.67;1.30;;;5.50;98.20;;;;;;4963602;28;20489;-71
2022/01/23 00:17:56;;;;;;;1.63;1.40;;;5.50;98.20;;;;;;4962343;28;20504;-71
2022/01/23 00:20:24;;;;;;;1.60;1.30;;;5.50;98.20;;;;;;4968118;28;20473;-71
2022/01/23 00:22:56;;;;;;;1.67;1.37;;;5.50;98.20;;;;;;4961147;28;20580;-71
2022/01/23 00:30:55;;;;;;;1.60;1.30;;;5.50;98.20;;;;;;4959325;28;21083;-71
2022/01/23 00:33:23;;;;;;;1.60;1.30;;;5.50;98.20;;;;;;4966517;28;20845;-71
2022/01/23 00:35:53;;;;;;;1.70;1.40;;;5.50;98.20;;;;;;4959255;28;20520;-71
2022/01/23 00:38:22;;;;;;;1.67;1.40;;;5.50;98.20;;;;;;4982444;28;20472;-71
2022/01/23 00:40:49;;;;;;;1.60;1.33;;;5.50;98.20;;;;;;4958810;28;20528;-71
2022/01/23 00:43:17;;;;;;;1.70;1.30;;;5.50;98.20;;;;;;4983351;28;20481;-71
2022/01/23 00:45:48;;;;;;;1.63;1.30;;;5.50;98.20;;;;;;4972140;28;20486;-71
2022/01/23 00:48:16;;;;;;;1.60;1.30;;;5.50;98.20;;;;;;4962621;28;20836;-71
2022/01/23 00:50:46;;;;;;;1.60;1.30;;;5.50;98.20;;;;;;4968603;28;20490;-71
2022/01/23 00:53:15;;;;;;;1.60;1.30;;;5.50;98.20;;;;;;4957415;28;20481;-71
2022/01/23 00:55:44;;;;;;;1.60;1.30;;;5.50;98.20;;;;;;4969040;28;20478;-71
2022/01/23 00:58:12;;;;;;;1.67;1.30;;;5.50;98.20;;;;;;4959218;28;20952;-71
2022/01/23 01:00:40;;;;;;;1.60;1.30;;;5.50;98.20;;;;;;4973928;28;20464;-71
2022/01/23 01:03:07;;;;;;;1.60;1.30;;;5.50;98.20;;;;;;4959223;28;20480;-71
2022/01/23 01:05:34;;;;;;;1.70;1.30;;;5.50;98.20;;;;;;4969455;28;20485;-71
2022/01/23 01:08:03;;;;;;;1.70;1.40;;;5.50;98.20;;;;;;4959660;28;20543;-71
2022/01/23 01:10:38;;;;;;;1.70;1.40;;;5.50;98.20;;;;;;4967527;28;20585;-71
2022/01/23 01:13:09;;;;;;;1.63;1.30;;;5.50;98.20;;;;;;4960896;28;20560;-71
2022/01/23 01:15:54;;;;;;;2.03;1.83;;;5.50;98.20;;;;;;4972330;28;20556;-71
2022/01/23 01:32:14;;;;;;;1.70;1.40;;;5.40;98.20;;;;;;4959278;28;20513;-71
2022/01/23 01:34:46;;;;;;;1.60;1.30;;;5.40;98.20;;;;;;4971002;28;20522;-71
2022/01/23 01:37:14;;;;;;;1.60;1.30;;;5.40;98.20;;;;;;4967948;28;20661;-71
2022/01/23 01:39:41;;;;;;;1.70;1.30;;;5.40;98.20;;;;;;4971150;28;20474;-71
2022/01/23 01:42:10;;;;;;;1.63;1.30;;;5.40;98.20;;;;;;4960877;28;20492;-71
2022/01/23 01:44:37;;;;;;;1.70;1.50;;;5.40;98.20;;;;;;4971149;28;21010;-71
2022/01/23 01:47:06;;;;;;;1.67;1.40;;;5.40;98.20;;;;;;4963133;28;20497;-71
2022/01/23 01:49:33;;;;;;;1.70;1.40;;;5.40;98.20;;;;;;4984880;28;20848;-71
2022/01/23 01:52:02;;;;;;;1.60;1.30;;;5.40;98.20;;;;;;4972017;28;20571;-71
2022/01/23 01:54:31;;;;;;;1.70;1.40;;;5.40;98.20;;;;;;4970269;28;21040;-71
2022/01/23 01:57:06;;;;;;;1.70;1.50;;;5.40;98.20;;;;;;4964045;28;20508;-71
2022/01/23 02:02:54;;;;;;;1.67;1.33;;;5.40;98.20;;;;;;4958377;28;20489;-71
2022/01/23 02:08:23;;;;;;;1.60;1.30;;;5.40;98.20;;;;;;4926277;28;20832;-72
2022/01/23 02:10:54;;;;;;;1.60;1.30;;;5.40;98.20;;;;;;4961019;28;20489;-71
2022/01/23 02:13:26;;;;;;;1.67;1.30;;;5.40;98.20;;;;;;4969150;28;20462;-71
2022/01/23 02:22:29;;;;;;;1.60;1.30;;;5.40;98.20;;;;;;4980669;28;20461;-71
2022/01/23 02:51:59;;;;;;;1.70;1.30;;;5.40;98.20;;;;;;4967470;28;20492;-72
2022/01/23 02:54:44;;;;;;;1.70;1.40;;;5.40;98.20;;;;;;4982159;28;21199;-72
2022/01/23 02:57:19;;;;;;;1.67;1.40;;;5.40;98.20;;;;;;4960405;28;20521;-73
2022/01/23 02:59:46;;;;;;;1.67;1.30;;;5.40;98.20;;;;;;4967127;28;20544;-72
2022/01/23 03:02:25;;;;;;;1.70;1.50;;;5.40;98.20;;;;;;4967801;28;20491;-72
2022/01/23 03:04:53;;;;;;;1.63;1.40;;;5.40;98.20;;;;;;4966908;28;20504;-72
2022/01/23 03:07:47;;;;;;;1.60;1.30;;;5.30;98.20;;;;;;4971931;28;20988;-72
2022/01/23 03:10:20;;;;;;;1.67;1.40;;;5.30;98.20;;;;;;4969538;28;20466;-73
2022/01/23 03:15:55;;;;;;;1.60;1.30;;;5.30;98.20;;;;;;4980471;28;20472;-70
2022/01/23 03:27:02;;;;;;;1.70;1.40;;;5.30;98.20;;;;;;4896173;29;20516;-72
2022/01/23 03:29:40;;;;;;;1.63;1.30;;;5.30;98.20;;;;;;4902480;29;20505;-72
2022/01/23 03:32:20;;;;;;;1.60;1.30;;;5.30;98.20;;;;;;4937815;28;20611;-72
2022/01/23 03:34:46;;;;;;;1.70;1.30;;;5.30;98.20;;;;;;4968976;28;20508;-72
2022/01/23 03:37:13;;;;;;;1.67;1.40;;;5.30;98.20;;;;;;4967826;28;20492;-72
2022/01/23 03:39:40;;;;;;;1.70;1.47;;;5.30;98.20;;;;;;4968444;28;21231;-70
2022/01/23 03:42:09;;;;;;;1.60;1.40;;;5.30;98.20;;;;;;4960129;28;20491;-72
2022/01/23 03:44:47;;;;;;;1.60;1.30;;;5.30;98.20;;;;;;4969391;28;20486;-72
2022/01/23 03:47:21;;;;;;;1.63;1.33;;;5.30;98.20;;;;;;4977855;28;20563;-70
2022/01/23 03:49:48;;;;;;;1.60;1.30;;;5.30;98.20;;;;;;4966034;28;20505;-73
2022/01/23 03:52:16;;;;;;;1.90;1.60;;;5.30;98.20;;;;;;4969703;28;20496;-72
2022/01/23 03:54:43;;;;;;;1.60;1.30;;;5.30;98.20;;;;;;4975462;28;20482;-72
2022/01/23 03:57:12;;;;;;;1.60;1.30;;;5.30;98.20;;;;;;4971469;28;21167;-72
2022/01/23 03:59:39;;;;;;;1.70;1.40;;;5.30;98.20;;;;;;4972546;28;20461;-72
2022/01/23 04:02:07;;;;;;;1.70;1.40;;;5.30;98.20;;;;;;4965591;28;20518;-72
2022/01/23 04:04:43;;;;;;;1.70;1.40;;;5.30;98.20;;;;;;4968496;28;20482;-70
2022/01/23 04:07:13;;;;;;;1.60;1.30;;;5.20;98.20;;;;;;4963332;28;20489;-70
2022/01/23 04:09:41;;;;;;;1.63;1.40;;;5.20;98.20;;;;;;4967037;28;20557;-70
2022/01/23 04:12:21;;;;;;;1.60;1.30;;;5.20;98.20;;;;;;4961479;28;20485;-70
2022/01/23 04:14:54;;;;;;;1.70;1.40;;;5.20;98.20;;;;;;4976111;28;20485;-70
2022/01/23 04:20:32;;;;;;;1.60;1.40;;;5.20;98.20;;;;;;4968137;28;20581;-70
2022/01/23 04:34:11;;;;;;;1.70;1.40;;;5.30;98.20;;;;;;4967730;28;20519;-70
2022/01/23 04:45:27;;;;;;;1.70;1.50;;;5.30;98.20;;;;;;4948514;28;21068;-70
2022/01/23 05:01:56;;;;;;;1.60;1.40;;;5.20;98.20;;;;;;4965048;28;20512;-72
2022/01/23 05:04:28;;;;;;;2.00;1.80;;;5.20;98.20;;;;;;4974819;28;20489;-72
2022/01/23 05:07:00;;;;;;;1.70;1.40;;;5.20;98.20;;;;;;4967279;28;20568;-71
2022/01/23 05:09:28;;;;;;;1.60;1.30;;;5.20;98.20;;;;;;4967002;28;20557;-72
2022/01/23 05:11:58;;;;;;;1.70;1.40;;;5.20;98.20;;;;;;4959077;28;21007;-71
2022/01/23 05:14:32;;;;;;;1.60;1.30;;;5.20;98.20;;;;;;4965242;28;21939;-72
2022/01/23 05:17:01;;;;;;;1.60;1.30;;;5.20;98.20;;;;;;4965981;28;20533;-72
2022/01/23 05:19:28;;;;;;;1.60;1.30;;;5.20;98.20;;;;;;4971352;28;20477;-72
2022/01/23 05:22:17;;;;;;;3.80;2.50;;;5.20;98.20;;;;;;4964141;28;20623;-71
2022/01/23 05:24:49;;;;;;;1.60;1.30;;;5.20;98.20;;;;;;4975782;28;20485;-72
2022/01/23 05:27:16;;;;;;;1.70;1.40;;;5.20;98.20;;;;;;4984812;28;20480;-69
2022/01/23 05:29:43;;;;;;;1.67;1.30;;;5.20;98.20;;;;;;4976445;28;20814;-69
2022/01/23 05:32:12;;;;;;;1.60;1.30;;;5.20;98.20;;;;;;4967962;28;21133;-69
2022/01/23 05:34:40;;;;;;;6.50;3.73;;;5.20;98.20;;;;;;4974957;28;20493;-69
2022/01/23 05:37:07;;;;;;;1.60;1.20;;;5.20;98.20;;;;;;4967258;28;20583;-69
2022/01/23 05:39:34;;;;;;;1.60;1.30;;;5.20;98.20;;;;;;4973394;28;20470;-70
2022/01/23 05:42:06;;;;;;;1.63;1.30;;;5.20;98.20;;;;;;4973442;28;20492;-69
2022/01/23 05:44:34;;;;;;;1.70;1.50;;;5.20;98.20;;;;;;4982047;28;20484;-69
2022/01/23 05:47:01;;;;;;;1.60;1.30;;;5.20;98.20;;;;;;4970233;28;20521;-69
2022/01/23 05:49:29;;;;;;;1.70;1.40;;;5.20;98.20;;;;;;4973439;28;20502;-70
2022/01/23 05:51:57;;;;;;;1.70;1.50;;;5.20;98.20;;;;;;4968100;28;20499;-69
2022/01/23 05:54:23;;;;;;;1.60;1.30;;;5.20;98.20;;;;;;4975082;28;20482;-69
2022/01/23 05:56:50;;;;;;;1.60;1.30;;;5.20;98.20;;;;;;4975058;28;20485;-69
2022/01/23 05:59:17;;;;;;;1.63;1.40;;;5.20;98.20;;;;;;4979309;28;20475;-69
2022/01/23 06:01:46;;;;;;;1.60;1.30;;;5.20;98.20;;;;;;4971948;28;20564;-72
2022/01/23 06:04:13;;;;;;;1.70;1.50;;;5.20;98.20;;;;;;4984650;28;20509;-71
2022/01/23 06:06:42;;;;;;;1.70;1.40;;;5.20;98.20;;;;;;4970530;28;21046;-71
2022/01/23 06:09:10;;;;;;;1.60;1.30;;;5.20;98.20;;;;;;4983845;28;20891;-71
2022/01/23 06:11:37;;;;;;;1.60;1.30;;;5.20;98.20;;;;;;4971979;28;20491;-70
2022/01/23 06:14:03;;;;;;;1.60;1.30;;;5.20;98.20;;;;;;4979001;28;21041;-71
2022/01/23 06:16:30;;;;;;;1.60;1.30;;;5.20;98.20;;;;;;4978656;28;20490;-71
2022/01/23 06:18:57;;;;;;;1.70;1.40;;;5.20;98.20;;;;;;4978540;28;20836;-71
2022/01/23 06:21:25;;;;;;;1.70;1.40;;;5.20;98.20;;;;;;4960899;28;20587;-71
2022/01/23 06:24:02;;;;;;;1.70;1.40;;;5.20;98.20;;;;;;4981426;28;20780;-71
2022/01/23 06:26:41;;;;;;;1.63;1.33;;;5.20;98.20;;;;;;4967150;28;20571;-71
2022/01/23 06:29:08;;;;;;;1.60;1.30;;;5.20;98.20;;;;;;4972331;28;20457;-71
2022/01/23 06:31:35;;;;;;;1.67;1.30;;;5.20;98.20;;;;;;4968242;28;20523;-71
2022/01/23 06:34:02;;;;;;;1.60;1.30;;;5.20;98.20;;;;;;4979311;28;20652;-71
2022/01/23 06:36:29;;;;;;;1.60;1.30;;;5.20;98.20;;;;;;4963956;28;20938;-71
2022/01/23 06:38:57;;;;;;;1.60;1.30;;;5.20;98.20;;;;;;4971981;28;20469;-71
2022/01/23 06:41:24;;;;;;;1.63;1.30;;;5.20;98.20;;;;;;4961023;28;20488;-71
2022/01/23 06:43:51;;;;;;;1.60;1.40;;;5.20;98.20;;;;;;4966496;28;20466;-71
2022/01/23 06:46:18;;;;;;;1.67;1.33;;;5.20;98.20;;;;;;4971850;28;20604;-71
2022/01/23 06:48:45;;;;;;;1.67;1.37;;;5.20;98.20;;;;;;4971755;28;21410;-71
2022/01/23 06:51:12;;;;;;;1.60;1.30;;;5.20;98.20;;;;;;4961561;28;20505;-70
2022/01/23 06:53:39;;;;;;;1.67;1.30;;;5.20;98.20;;;;;;4980954;28;20470;-71
2022/01/23 06:56:07;;;;;;;1.70;1.40;;;5.20;98.20;;;;;;4961870;28;20486;-71
2022/01/23 06:58:34;;;;;;;1.60;1.30;;;5.20;98.20;;;;;;4985348;28;20880;-71
2022/01/23 07:01:01;;;;;;;1.70;1.50;;;5.20;98.20;;;;;;4960531;28;20462;-71
2022/01/23 07:03:28;;;;;;;1.60;1.30;;;5.20;98.20;;;;;;4982717;28;20477;-71
2022/01/23 07:05:55;;;;;;;1.67;1.37;;;5.20;98.20;;;;;;4961164;28;20594;-71
2022/01/23 07:08:22;;;;;;;1.67;1.30;;;5.20;98.20;;;;;;4977733;28;20554;-70
2022/01/23 07:10:49;;;;;;;1.67;1.30;;;5.20;98.20;;;;;;4959472;28;20469;-71
2022/01/23 07:13:17;;;;;;;1.67;1.40;;;5.20;98.20;;;;;;4982609;28;20872;-71
2022/01/23 07:15:44;;;;;;;1.60;1.30;;;5.20;98.20;;;;;;4978646;28;20531;-71
2022/01/23 07:18:11;;;;;;;1.67;1.30;;;5.20;98.20;;;;;;4966050;28;20506;-71
2022/01/23 07:20:38;;;;;;;1.60;1.30;;;5.20;98.20;;;;;;4972606;28;20489;-71
2022/01/23 07:23:05;;;;;;;1.70;1.30;;;5.20;98.20;;;;;;4966357;28;20518;-71
2022/01/23 07:25:32;;;;;;;1.70;1.40;;;5.20;98.20;;;;;;4969668;28;20490;-71
2022/01/23 07:28:00;;;;;;;1.63;1.30;;;5.30;98.20;;;;;;4975115;28;20481;-71
2022/01/23 07:30:35;;;;;;;1.63;1.30;;;5.20;98.20;;;;;;4968181;28;20462;-71
2022/01/23 07:33:02;;;;;;;1.60;1.30;;;5.20;98.20;;;;;;4960607;28;20495;-70
2022/01/23 07:35:29;;;;;;;1.60;1.30;;;5.30;98.20;;;;;;4969368;28;20834;-71
2022/01/23 07:37:56;;;;;;;1.70;1.40;;;5.30;98.20;;;;;;4973928;28;20492;-70
2022/01/23 07:40:23;;;;;;;1.60;1.30;;;5.30;98.20;;;;;;4971175;28;20462;-71
2022/01/23 07:42:50;;;;;;;1.67;1.40;;;5.30;98.20;;;;;;4969124;28;20509;-71
2022/01/23 07:45:17;;;;;;;1.67;1.30;;;5.30;98.20;;;;;;4967618;28;20532;-70
2022/01/23 07:47:46;;;;;;;1.70;1.37;;;5.30;98.20;;;;;;4974283;28;20958;-71
2022/01/23 07:50:13;;;;;;;1.70;1.50;;;5.30;98.20;;;;;;4972717;28;20466;-71
2022/01/23 07:52:41;;;;;;;1.60;1.30;;;5.30;98.20;;;;;;4974628;28;20489;-71
2022/01/23 07:55:10;;;;;;;1.60;1.30;;;5.30;98.20;;;;;;4971781;28;20500;-71
2022/01/23 07:57:37;;;;;;;1.60;1.37;;;5.30;98.20;;;;;;4964454;28;21030;-70
2022/01/23 08:00:06;;;;;;;1.60;1.33;;;5.30;98.20;;;;;;4968971;28;20570;-71
2022/01/23 08:02:33;;;;;;;1.70;1.50;;;5.30;98.20;;;;;;4971641;28;20488;-71
2022/01/23 08:05:01;;;;;;;1.67;1.30;;;5.30;98.20;;;;;;4970492;28;20592;-70
2022/01/23 08:07:32;;;;;;;1.60;1.30;;;5.30;98.20;;;;;;4970142;28;20489;-72
2022/01/23 08:10:00;;;;;;;1.67;1.30;;;5.30;98.20;;;;;;4970476;28;20554;-71
2022/01/23 08:12:28;;;;;;;1.60;1.40;;;5.30;98.20;;;;;;4969235;28;20484;-70
2022/01/23 08:14:57;;;;;;;1.60;1.30;;;5.30;98.20;;;;;;4974121;28;20482;-70
2022/01/23 08:17:24;;;;;;;1.67;1.37;;;5.40;98.20;;;;;;4973546;28;20487;-70
2022/01/23 08:19:52;;;;;;;1.70;1.40;;;5.40;98.20;;;;;;4974082;28;20930;-70
2022/01/23 08:22:22;;;;;;;1.60;1.30;;;5.40;98.20;;;;;;4973046;28;20922;-70
2022/01/23 08:24:50;;;;;;;1.70;1.40;;;5.40;98.20;;;;;;4970070;28;20482;-70
2022/01/23 08:27:17;;;;;;;1.60;1.30;;;5.40;98.20;;;;;;4967648;28;20485;-70
2022/01/23 08:29:44;;;;;;;1.60;1.30;;;5.40;98.20;;;;;;4975331;28;20469;-70
2022/01/23 08:32:11;;;;;;;1.70;1.43;;;5.40;98.20;;;;;;4967797;28;20556;-70
2022/01/23 08:34:39;;;;;;;1.60;1.30;;;5.40;98.20;;;;;;4969832;28;20508;-71
2022/01/23 08:37:06;;;;;;;1.70;1.40;;;5.40;98.20;;;;;;4962082;28;20577;-71
2022/01/23 08:39:36;;;;;;;1.67;1.37;;;5.40;98.20;;;;;;4968427;28;20470;-70
2022/01/23 08:42:04;;;;;;;1.60;1.30;;;5.40;98.20;;;;;;4960916;28;20535;-70
2022/01/23 08:44:31;;;;;;;1.70;1.40;;;5.40;98.20;;;;;;4969561;28;20485;-70
2022/01/23 08:46:58;;;;;;;1.70;1.50;;;5.40;98.20;;;;;;4971270;28;21051;-71
2022/01/23 08:49:27;;;;;;;1.63;1.30;;;5.50;98.20;;;;;;4978269;28;20856;-70
2022/01/23 08:51:55;;;;;;;1.60;1.30;;;5.50;98.20;;;;;;4966199;28;20588;-70
2022/01/23 08:54:22;;;;;;;1.63;1.37;;;5.50;98.20;;;;;;4964094;28;21025;-69
2022/01/23 08:56:50;;;;;;;1.63;1.30;;;5.50;98.20;;;;;;4950702;28;20955;-71
2022/01/23 08:59:18;;;;;;;1.63;1.40;;;5.50;98.20;;;;;;4958216;28;20493;-71
2022/01/23 09:01:45;;;;;;;1.70;1.33;;;5.50;98.20;;;;;;4972733;28;20780;-73
2022/01/23 09:04:15;;;;;;;1.70;1.40;;;5.50;98.20;;;;;;4977391;28;20482;-70
2022/01/23 09:06:43;;;;;;;1.60;1.30;;;5.50;98.20;;;;;;4957711;28;20493;-71
2022/01/23 09:09:15;;;;;;;1.70;1.40;;;5.50;98.20;;;;;;4978610;28;20897;-71
2022/01/23 09:11:54;;;;;;;1.60;1.20;;;5.60;98.20;;;;;;4957233;28;20489;-71
2022/01/23 09:14:24;;;;;;;1.70;1.37;;;5.60;98.20;;;;;;4969279;28;20851;-70
2022/01/23 09:16:53;;;;;;;1.60;1.30;;;5.60;98.20;;;;;;4970878;28;20552;-70
2022/01/23 09:19:22;;;;;;;1.60;1.30;;;5.60;98.20;;;;;;4971912;28;20489;-69
2022/01/23 09:21:50;;;;;;;1.60;1.30;;;5.60;98.20;;;;;;4958322;28;20882;-69
2022/01/23 09:24:18;;;;;;;1.70;1.50;;;5.60;98.20;;;;;;4964005;28;20986;-72
2022/01/23 09:26:51;;;;;;;1.67;1.30;;;5.70;98.20;;;;;;4962576;28;20859;-71
2022/01/23 09:29:25;;;;;;;1.60;1.30;;;5.70;98.20;;;;;;4965044;28;20557;-71
2022/01/23 09:31:54;;;;;;;1.60;1.30;;;5.70;98.20;;;;;;4959116;28;20917;-72
2022/01/23 09:34:23;;;;;;;1.60;1.30;;;5.70;98.20;;;;;;4973049;28;21036;-72
2022/01/23 09:36:50;;;;;;;1.70;1.40;;;5.70;98.20;;;;;;4956198;28;20494;-71
2022/01/23 09:39:20;;;;;;;1.63;1.37;;;5.70;98.20;;;;;;4966750;28;20468;-71
2022/01/23 09:41:50;;;;;;;1.70;1.40;;;5.70;98.20;;;;;;4960245;28;20492;-71
2022/01/23 09:44:18;;;;;;;1.63;1.30;;;5.70;98.20;;;;;;4971287;28;21096;-71
2022/01/23 09:46:47;;;;;;;1.70;1.30;;;5.70;98.20;;;;;;4962512;28;21012;-71
2022/01/23 09:49:17;;;;;;;1.67;1.37;;;5.70;98.20;;;;;;4964803;28;20469;-72
2022/01/23 09:51:45;;;;;;;1.67;1.30;;;5.70;98.20;;;;;;4956774;28;20501;-71
2022/01/23 09:54:15;;;;;;;1.70;1.40;;;5.70;98.20;;;;;;4966916;28;20501;-71
2022/01/23 09:56:43;;;;;;;1.70;1.40;;;5.70;98.20;;;;;;4956632;28;20485;-71
2022/01/23 09:59:22;;;;;;;2.30;2.10;;;5.70;98.20;;;;;;4965831;28;20501;-71
2022/01/23 10:01:55;;;;;;;1.67;1.30;;;5.70;98.20;;;;;;4957677;28;20570;-71
2022/01/23 10:04:23;;;;;;;1.60;1.30;;;5.70;98.20;;;;;;4965017;28;20540;-71
2022/01/23 10:06:51;;;;;;;1.70;1.40;;;5.70;98.20;;;;;;4956530;28;20481;-71
2022/01/23 10:09:19;;;;;;;1.60;1.30;;;5.70;98.20;;;;;;4960260;28;20466;-71
2022/01/23 10:11:47;;;;;;;1.60;1.30;;;5.80;98.20;;;;;;4961020;28;21001;-71
2022/01/23 10:14:16;;;;;;;1.60;1.30;;;5.80;98.20;;;;;;4973053;28;20490;-71
2022/01/23 10:16:44;;;;;;;1.63;1.40;;;5.80;98.20;;;;;;4965920;28;20520;-71
2022/01/23 10:19:11;;;;;;;1.70;1.47;;;5.90;98.20;;;;;;4972636;28;20470;-71
2022/01/23 10:21:39;;;;;;;1.70;1.30;;;5.90;98.20;;;;;;4956229;28;20589;-71
2022/01/23 10:24:08;;;;;;;1.60;1.30;;;5.90;98.20;;;;;;4970910;28;21016;-71
2022/01/23 10:26:43;;;;;;;1.60;1.30;;;5.90;98.20;;;;;;4960565;28;20581;-71
2022/01/23 10:29:15;;;;;;;1.67;1.30;;;5.90;98.20;;;;;;4976816;28;20516;-71
2022/01/23 10:32:04;;;;;;;1.60;1.30;;;5.90;98.20;;;;;;4961815;28;20488;-71
2022/01/23 10:34:54;;;;;;;1.60;1.30;;;6.00;98.20;;;;;;4970256;28;20585;-71
2022/01/23 10:37:28;;;;;;;1.67;1.33;;;6.00;98.20;;;;;;4966323;28;20488;-72
2022/01/23 10:39:56;;;;;;;1.67;1.30;;;6.00;98.20;;;;;;4966956;28;20473;-72
2022/01/23 10:42:48;;;;;;;1.67;1.30;;;6.00;98.20;;;;;;4964310;28;21057;-72
2022/01/23 10:48:36;;;;;;;1.63;1.30;;;6.10;98.20;;;;;;4958605;28;21589;-71
2022/01/23 10:51:21;;;;;;;1.80;1.30;;;6.10;98.20;;;;;;4961688;28;20462;-72
2022/01/23 10:54:15;;;;;;;1.70;1.40;;;6.10;98.20;;;;;;4978728;28;20489;-72
2022/01/23 10:57:03;;;;;;;1.60;1.30;;;6.20;98.20;;;;;;4963182;28;20477;-72
2022/01/23 10:59:41;;;;;;;1.70;1.40;;;6.20;98.20;;;;;;4971847;28;20990;-70
2022/01/23 11:02:10;;;;;;;1.70;1.30;;;6.30;98.20;;;;;;4959885;28;20482;-70
2022/01/23 11:04:52;;;;;;;1.60;1.30;;;6.30;98.20;;;;;;4972568;28;20509;-70
2022/01/23 11:07:19;;;;;;;1.70;1.50;;;6.30;98.20;;;;;;4967403;28;20489;-70
2022/01/23 11:09:48;;;;;;;4.80;4.50;;;6.30;98.20;;;;;;4967979;28;20469;-70
2022/01/23 11:12:30;;;;;;;1.67;1.30;;;6.40;98.20;;;;;;4964051;28;20485;-70
2022/01/23 11:17:50;;;;;;;1.67;1.33;;;6.40;98.20;;;;;;4955450;28;20477;-71
2022/01/23 11:20:34;;;;;;;1.70;1.40;;;6.50;98.20;;;;;;4964328;28;20560;-71
2022/01/23 11:23:03;;;;;;;1.60;1.20;;;6.50;98.20;;;;;;4964853;28;20592;-70
2022/01/23 11:25:31;;;;;;;1.60;1.30;;;6.60;98.20;;;;;;4970677;28;20489;-71
2022/01/23 11:28:03;;;;;;;1.73;1.63;;;6.60;98.20;;;;;;4971990;28;20473;-71
2022/01/23 11:30:37;;;;;;;1.60;1.20;;;6.60;98.20;;;;;;4966617;28;20469;-71
2022/01/23 11:33:05;;;;;;;1.67;1.30;;;6.60;98.20;;;;;;4965392;28;20481;-71
2022/01/23 11:35:32;;;;;;;1.70;1.30;;;6.60;98.20;;;;;;4968235;28;20502;-70
2022/01/23 11:37:59;;;;;;;1.70;1.30;;;6.70;98.20;;;;;;4966869;28;20485;-71
2022/01/23 11:54:17;;;;;;;1.70;1.30;;;6.80;98.20;;;;;;4975571;28;20509;-71
2022/01/23 11:56:46;;;;;;;1.67;1.37;;;6.80;98.20;;;;;;4965521;28;21025;-71
2022/01/23 11:59:28;;;;;;;1.63;1.20;;;6.90;98.20;;;;;;4972208;28;20605;-71
2022/01/23 12:05:26;;;;;;;2.07;1.80;;;6.90;98.20;;;;;;4973058;28;20484;-71
2022/01/23 12:08:23;;;;;;;1.60;1.20;;;6.90;98.20;;;;;;4965033;28;20473;-71
2022/01/23 12:11:24;;;;;;;1.70;1.40;;;6.90;98.20;;;;;;4932640;28;20482;-71
2022/01/23 12:17:14;;;;;;;1.63;1.30;;;6.90;98.20;;;;;;4967613;28;21026;-71
2022/01/23 12:19:45;;;;;;;1.60;1.30;;;6.90;98.20;;;;;;4966839;28;20553;-71
2022/01/23 12:22:35;;;;;;;1.60;1.27;;;6.90;98.20;;;;;;4963382;28;20484;-71
2022/01/23 12:25:15;;;;;;;1.67;1.27;;;6.90;98.20;;;;;;4968753;28;20482;-71
2022/01/23 12:27:42;;;;;;;1.63;1.30;;;6.90;98.20;;;;;;4976125;28;20488;-71
2022/01/23 12:30:33;;;;;;;1.63;1.30;;;6.90;98.20;;;;;;4970431;28;20466;-71
2022/01/23 12:33:30;;;;;;;1.70;1.30;;;6.90;98.20;;;;;;4952952;28;20497;-72
2022/01/23 12:36:00;;;;;;;1.63;1.20;;;6.90;98.20;;;;;;4957768;28;20496;-71
2022/01/23 12:38:31;;;;;;;1.60;1.30;;;6.90;98.20;;;;;;4980140;28;20548;-71
2022/01/23 12:41:16;;;;;;;1.70;1.30;;;6.90;98.20;;;;;;4955230;28;20860;-71
2022/01/23 12:43:43;;;;;;;1.60;1.20;;;6.90;98.20;;;;;;4976892;28;20458;-71
2022/01/23 12:46:16;;;;;;;1.60;1.30;;;7.00;98.20;;;;;;4964753;28;20477;-70
2022/01/23 12:48:48;;;;;;;1.70;1.30;;;7.00;98.20;;;;;;4969787;28;20835;-70
2022/01/23 12:51:38;;;;;;;1.70;1.47;;;7.00;98.20;;;;;;4957672;28;20938;-71
2022/01/23 12:54:23;;;;;;;1.70;1.33;;;7.00;98.20;;;;;;4962231;28;20986;-72
2022/01/23 12:56:52;;;;;;;1.60;1.30;;;7.00;98.20;;;;;;4960098;28;20482;-70
2022/01/23 12:59:27;;;;;;;1.60;1.20;;;7.00;98.20;;;;;;4970624;28;20466;-70
2022/01/23 13:02:01;;;;;;;1.70;1.40;;;7.00;98.20;;;;;;4964608;28;20996;-70
2022/01/23 13:04:38;;;;;;;1.60;1.20;;;6.90;98.20;;;;;;4974984;28;21009;-71
2022/01/23 13:07:26;;;;;;;1.60;1.20;;;6.90;98.20;;;;;;4968765;28;20526;-72
2022/01/23 13:10:02;;;;;;;1.67;1.33;;;7.00;98.20;;;;;;4966740;28;20462;-71
2022/01/23 13:12:48;;;;;;;1.60;1.20;;;7.00;98.20;;;;;;4962001;28;20576;-71
2022/01/23 13:15:37;;;;;;;1.70;1.40;;;7.00;98.20;;;;;;4968749;28;20501;-72
2022/01/23 13:18:16;;;;;;;1.70;1.30;;;6.90;98.20;;;;;;4973728;28;20481;-72
2022/01/23 13:32:03;;;;;;;1.60;1.20;;;7.00;98.20;;;;;;4964339;28;20512;-76
2022/01/23 13:34:41;;;;;;;1.70;1.30;;;7.00;98.20;;;;;;4965474;28;20672;-73
2022/01/23 13:37:10;;;;;;;2.57;1.93;;;7.00;98.20;;;;;;4960043;28;20505;-72
2022/01/23 13:39:44;;;;;;;1.63;1.20;;;7.10;98.20;;;;;;4968377;28;20473;-72
2022/01/23 13:42:29;;;;;;;1.80;1.47;;;7.10;98.20;;;;;;4962661;28;20489;-72
2022/01/23 13:48:05;;;;;;;1.70;1.30;;;7.10;98.20;;;;;;4939757;28;20497;-73
2022/01/23 13:53:29;;;;;;;1.60;1.20;;;7.10;98.20;;;;;;4962619;28;21030;-72
2022/01/23 13:58:53;;;;;;;1.70;1.40;;;7.00;98.20;;;;;;4952459;28;20521;-69
2022/01/23 14:01:36;;;;;;;1.70;1.30;;;7.10;98.20;;;;;;4963626;28;20484;-70
2022/01/23 14:04:03;;;;;;;1.70;1.30;;;7.00;98.20;;;;;;4976923;28;20759;-70
2022/01/23 14:06:31;;;;;;;1.70;1.53;;;7.00;98.20;;;;;;4964229;28;20479;-71
2022/01/23 14:09:04;;;;;;;1.60;1.20;;;7.00;98.20;;;;;;4979399;28;20469;-70
2022/01/23 14:11:31;;;;;;;1.70;1.30;;;7.00;98.20;;;;;;4957967;28;20492;-70
2022/01/23 14:14:13;;;;;;;1.63;1.20;;;7.00;98.20;;;;;;4979313;28;20889;-70
2022/01/23 14:16:40;;;;;;;1.63;1.30;;;7.00;98.20;;;;;;4964574;28;20487;-69
2022/01/23 14:19:20;;;;;;;1.67;1.30;;;7.00;98.20;;;;;;4976973;28;20488;-70
2022/01/23 14:21:51;;;;;;;1.60;1.30;;;7.00;98.20;;;;;;4962371;28;20489;-70
2022/01/23 14:24:26;;;;;;;1.60;1.30;;;7.00;98.20;;;;;;4971911;28;20935;-72
2022/01/23 14:26:57;;;;;;;1.60;1.20;;;6.90;98.20;;;;;;4966639;28;20493;-70
2022/01/23 14:29:24;;;;;;;1.60;1.30;;;6.90;98.20;;;;;;4974999;28;20478;-70
2022/01/23 14:32:05;;;;;;;1.63;1.30;;;6.90;98.20;;;;;;4960242;28;20492;-70
2022/01/23 14:34:33;;;;;;;1.60;1.30;;;6.90;98.20;;;;;;4965713;28;21005;-72
2022/01/23 14:37:06;;;;;;;1.67;1.30;;;6.80;98.20;;;;;;4961409;28;20484;-73
2022/01/23 14:39:33;;;;;;;2.53;2.33;;;6.80;98.20;;;;;;4966279;28;20474;-70
2022/01/23 14:42:11;;;;;;;2.13;1.93;;;6.80;98.20;;;;;;4967775;28;20969;-70
2022/01/23 14:44:38;;;;;;;1.70;1.30;;;6.80;98.20;;;;;;4973096;28;20492;-70
2022/01/23 14:47:05;;;;;;;1.63;1.30;;;6.80;98.20;;;;;;4963357;28;20630;-70
2022/01/23 14:49:32;;;;;;;1.60;1.30;;;6.80;98.20;;;;;;4971840;28;20826;-70
2022/01/23 14:52:03;;;;;;;1.70;1.40;;;6.80;98.20;;;;;;4963872;28;20499;-70
2022/01/23 14:54:32;;;;;;;1.63;1.30;;;6.80;98.20;;;;;;4969328;28;20485;-70
2022/01/23 14:57:00;;;;;;;1.80;1.60;;;6.80;98.20;;;;;;4961156;28;20493;-70
2022/01/23 14:59:27;;;;;;;1.70;1.30;;;6.80;98.20;;;;;;4969851;28;20473;-70
2022/01/23 15:01:54;;;;;;;1.70;1.30;;;6.80;98.20;;;;;;4966252;28;20493;-70
2022/01/23 15:04:23;;;;;;;1.70;1.30;;;6.80;98.20;;;;;;4971175;28;20532;-70
2022/01/23 15:06:52;;;;;;;1.60;1.30;;;6.80;98.20;;;;;;4965279;28;20928;-69
2022/01/23 15:09:23;;;;;;;1.70;1.40;;;6.80;98.20;;;;;;4973919;28;20470;-70
2022/01/23 15:11:51;;;;;;;1.70;1.40;;;6.80;98.20;;;;;;4965436;28;20559;-70
2022/01/23 15:14:18;;;;;;;1.70;1.30;;;6.80;98.20;;;;;;4976193;28;20489;-70
2022/01/23 15:16:47;;;;;;;1.60;1.30;;;6.80;98.20;;;;;;4956680;28;20517;-70
2022/01/23 15:19:13;;;;;;;1.60;1.30;;;6.80;98.20;;;;;;4966304;28;20589;-71
2022/01/23 15:21:40;;;;;;;1.70;1.50;;;6.80;98.20;;;;;;4961236;28;20525;-69
2022/01/23 15:24:07;;;;;;;1.70;1.30;;;6.80;98.20;;;;;;4970063;28;20853;-70
2022/01/23 15:26:37;;;;;;;1.60;1.30;;;6.70;98.20;;;;;;4959051;28;20481;-69
2022/01/23 15:29:05;;;;;;;1.60;1.30;;;6.80;98.20;;;;;;4970220;28;20806;-70
2022/01/23 15:31:32;;;;;;;1.60;1.40;;;6.80;98.20;;;;;;4954912;28;20564;-70
2022/01/23 15:33:59;;;;;;;1.60;1.20;;;6.70;98.20;;;;;;4970583;28;20470;-72
2022/01/23 15:36:26;;;;;;;1.70;1.40;;;6.70;98.20;;;;;;4957326;28;20476;-72
2022/01/23 15:38:53;;;;;;;1.70;1.40;;;6.70;98.20;;;;;;4973000;28;20468;-72
2022/01/23 15:41:20;;;;;;;1.70;1.40;;;6.70;98.20;;;;;;4956544;28;20489;-72
2022/01/23 15:43:48;;;;;;;1.60;1.30;;;6.70;98.20;;;;;;4968255;28;20477;-73
2022/01/23 15:46:16;;;;;;;1.70;1.40;;;6.70;98.20;;;;;;4961872;28;20484;-73
2022/01/23 15:48:43;;;;;;;1.67;1.30;;;6.70;98.20;;;;;;4970998;28;20465;-70
2022/01/23 15:51:10;;;;;;;1.70;1.30;;;6.60;98.20;;;;;;4957344;28;20496;-71
2022/01/23 15:53:37;;;;;;;1.63;1.30;;;6.70;98.20;;;;;;4976118;28;20962;-70